createdAt,value
2018-10-05T00:01:58.126Z,11.83
2018-10-05T00:04:27.336Z,11.81
2018-10-05T00:06:56.588Z,11.73
2018-10-05T00:09:25.879Z,11.70
2018-10-05T00:11:55.105Z,11.61
2018-10-05T00:14:24.373Z,11.61
2018-10-05T00:16:53.822Z,11.63
2018-10-05T00:19:22.810Z,11.54
2018-10-05T00:21:52.021Z,11.47
2018-10-05T00:24:21.135Z,11.40
2018-10-05T00:26:50.091Z,11.53
2018-10-05T00:29:19.246Z,11.56
2018-10-05T00:31:48.537Z,11.48
2018-10-05T00:34:17.731Z,11.37
2018-10-05T00:36:47.200Z,11.27
2018-10-05T00:39:16.546Z,11.30
2018-10-05T00:41:45.799Z,11.39
2018-10-05T00:44:14.780Z,11.35
2018-10-05T00:46:43.730Z,11.23
2018-10-05T00:49:12.959Z,11.20
2018-10-05T00:51:42.324Z,11.08
2018-10-05T00:54:11.623Z,10.97
2018-10-05T00:56:40.893Z,11.09
2018-10-05T00:59:10.255Z,11.20
2018-10-05T01:01:39.677Z,11.15
2018-10-05T01:04:08.982Z,11.11
2018-10-05T01:06:38.215Z,11.11
2018-10-05T01:09:08.419Z,11.11
2018-10-05T01:11:37.638Z,11.06
2018-10-05T01:14:06.944Z,11.25
2018-10-05T01:16:36.184Z,11.28
2018-10-05T01:19:05.797Z,11.23
2018-10-05T01:21:34.954Z,11.17
2018-10-05T01:24:04.184Z,11.16
2018-10-05T01:26:33.445Z,11.32
2018-10-05T01:29:02.649Z,11.37
2018-10-05T01:31:31.927Z,11.31
2018-10-05T01:34:01.056Z,11.30
2018-10-05T01:36:30.312Z,11.19
2018-10-05T01:38:59.553Z,11.26
2018-10-05T01:41:28.937Z,11.26
2018-10-05T01:43:58.163Z,11.23
2018-10-05T01:46:27.032Z,11.30
2018-10-05T01:48:56.251Z,11.27
2018-10-05T01:51:30.643Z,11.21
2018-10-05T01:54:00.191Z,11.11
2018-10-05T01:56:29.485Z,11.09
2018-10-05T01:58:58.852Z,11.04
2018-10-05T02:01:28.088Z,11.07
2018-10-05T02:03:57.263Z,11.01
2018-10-05T02:06:26.680Z,10.85
2018-10-05T02:08:56.000Z,10.80
2018-10-05T02:11:24.919Z,10.85
2018-10-05T02:13:53.905Z,10.70
2018-10-05T02:16:22.989Z,10.81
2018-10-05T02:18:52.240Z,10.93
2018-10-05T02:21:21.504Z,10.90
2018-10-05T02:23:50.712Z,10.92
2018-10-05T02:26:20.004Z,10.84
2018-10-05T02:28:49.335Z,10.79
2018-10-05T02:31:18.461Z,10.77
2018-10-05T02:33:47.582Z,10.70
2018-10-05T02:36:16.880Z,10.77
2018-10-05T02:38:46.086Z,10.80
2018-10-05T02:41:15.283Z,10.75
2018-10-05T02:43:44.524Z,10.74
2018-10-05T02:46:13.639Z,10.69
2018-10-05T02:48:43.129Z,10.60
2018-10-05T02:51:12.387Z,10.59
2018-10-05T02:53:41.468Z,10.65
2018-10-05T02:56:10.521Z,10.63
2018-10-05T02:58:39.814Z,10.56
2018-10-05T03:01:19.702Z,10.63
2018-10-05T03:03:48.967Z,10.59
2018-10-05T03:06:18.110Z,10.56
2018-10-05T03:08:46.971Z,10.49
2018-10-05T03:11:15.888Z,10.54
2018-10-05T03:13:45.188Z,10.46
2018-10-05T03:16:14.299Z,10.46
2018-10-05T03:18:43.621Z,10.43
2018-10-05T03:21:12.872Z,10.41
2018-10-05T03:23:42.075Z,10.36
2018-10-05T03:26:11.420Z,10.12
2018-10-05T03:28:40.667Z,10.10
2018-10-05T03:31:09.677Z,10.28
2018-10-05T03:33:38.611Z,10.28
2018-10-05T03:36:08.000Z,10.17
2018-10-05T03:38:37.260Z,10.10
2018-10-05T03:41:06.552Z,9.85
2018-10-05T03:43:35.479Z,10.08
2018-10-05T03:46:04.780Z,10.06
2018-10-05T03:48:33.727Z,10.05
2018-10-05T03:51:03.096Z,10.09
2018-10-05T03:53:32.302Z,10.07
2018-10-05T03:56:01.572Z,9.96
2018-10-05T03:58:30.581Z,10.08
2018-10-05T04:00:59.967Z,9.99
2018-10-05T04:03:29.535Z,10.01
2018-10-05T04:05:58.730Z,9.95
2018-10-05T04:08:27.670Z,9.89
2018-10-05T04:10:56.960Z,9.91
2018-10-05T04:13:26.207Z,9.86
2018-10-05T04:15:55.557Z,9.81
2018-10-05T04:18:24.715Z,9.83
2018-10-05T04:20:53.691Z,9.81
2018-10-05T04:23:22.652Z,9.81
2018-10-05T04:25:51.631Z,9.86
2018-10-05T04:28:20.836Z,9.86
2018-10-05T04:30:50.080Z,9.95
2018-10-05T04:33:19.099Z,10.05
2018-10-05T04:35:48.145Z,10.04
2018-10-05T04:38:17.031Z,9.96
2018-10-05T04:40:46.355Z,9.97
2018-10-05T04:43:15.613Z,10.07
2018-10-05T04:45:44.980Z,10.23
2018-10-05T04:48:14.151Z,10.30
2018-10-05T04:50:43.395Z,10.40
2018-10-05T04:53:12.648Z,10.50
2018-10-05T04:55:41.904Z,10.58
2018-10-05T04:58:11.257Z,10.68
2018-10-05T05:00:40.284Z,10.72
2018-10-05T05:03:09.291Z,10.69
2018-10-05T05:05:38.675Z,10.66
2018-10-05T05:08:07.883Z,10.59
2018-10-05T05:10:37.175Z,10.57
2018-10-05T05:13:06.448Z,10.64
2018-10-05T05:15:35.770Z,10.70
2018-10-05T05:18:04.846Z,10.79
2018-10-05T05:20:34.176Z,10.85
2018-10-05T05:23:03.875Z,10.90
2018-10-05T05:25:32.995Z,10.87
2018-10-05T05:28:02.219Z,10.79
2018-10-05T05:30:31.280Z,10.89
2018-10-05T05:33:00.520Z,11.08
2018-10-05T05:35:29.676Z,11.20
2018-10-05T05:37:58.660Z,11.17
2018-10-05T05:40:27.887Z,11.31
2018-10-05T05:42:57.135Z,11.36
2018-10-05T05:45:26.228Z,11.40
2018-10-05T05:47:55.540Z,11.45
2018-10-05T05:50:24.797Z,11.45
2018-10-05T05:52:54.423Z,11.44
2018-10-05T05:55:23.750Z,11.58
2018-10-05T05:57:53.005Z,11.73
2018-10-05T06:00:22.248Z,11.88
2018-10-05T06:02:51.335Z,11.96
2018-10-05T06:05:20.936Z,12.02
2018-10-05T06:07:50.307Z,11.87
2018-10-05T06:10:19.615Z,11.85
2018-10-05T06:12:48.756Z,11.89
2018-10-05T06:15:17.973Z,11.93
2018-10-05T06:17:46.824Z,12.04
2018-10-05T06:20:15.939Z,12.01
2018-10-05T06:22:45.436Z,12.01
2018-10-05T06:25:14.756Z,12.06
2018-10-05T06:27:43.936Z,12.13
2018-10-05T06:30:13.164Z,12.19
2018-10-05T06:32:42.108Z,12.23
2018-10-05T06:35:11.218Z,12.27
2018-10-05T06:37:40.294Z,12.44
2018-10-05T06:40:09.351Z,12.50
2018-10-05T06:42:38.612Z,12.66
2018-10-05T06:45:08.080Z,12.83
2018-10-05T06:47:37.198Z,13.01
2018-10-05T06:50:06.313Z,13.17
2018-10-05T06:52:35.498Z,13.28
2018-10-05T06:55:04.503Z,13.40
2018-10-05T06:57:33.728Z,13.53
2018-10-05T07:00:02.956Z,13.68
2018-10-05T07:02:32.212Z,13.83
2018-10-05T07:05:01.343Z,13.96
2018-10-05T07:07:30.591Z,14.02
2018-10-05T07:09:59.911Z,14.17
2018-10-05T07:12:28.949Z,14.20
2018-10-05T07:14:58.036Z,14.21
2018-10-05T07:17:26.946Z,14.27
2018-10-05T07:19:56.144Z,14.45
2018-10-05T07:22:25.294Z,14.52
2018-10-05T07:24:54.517Z,14.56
2018-10-05T07:27:23.667Z,14.65
2018-10-05T07:29:52.603Z,14.68
2018-10-05T07:32:21.923Z,14.72
2018-10-05T07:34:51.201Z,14.81
2018-10-05T07:37:20.580Z,14.90
2018-10-05T07:39:49.989Z,14.99
2018-10-05T07:42:19.096Z,15.08
2018-10-05T07:44:48.070Z,15.20
2018-10-05T07:47:17.459Z,15.35
2018-10-05T07:49:46.813Z,15.50
2018-10-05T07:52:16.152Z,15.62
2018-10-05T07:54:45.350Z,15.69
2018-10-05T07:57:14.328Z,15.78
2018-10-05T07:59:43.691Z,15.88
2018-10-05T08:02:12.800Z,16.01
2018-10-05T08:04:41.979Z,16.13
2018-10-05T08:07:11.191Z,16.23
2018-10-05T08:09:40.268Z,16.32
2018-10-05T08:12:09.351Z,16.42
2018-10-05T08:14:38.499Z,16.49
2018-10-05T08:17:07.706Z,16.50
2018-10-05T08:19:36.969Z,16.56
2018-10-05T08:22:06.046Z,16.61
2018-10-05T08:24:34.904Z,16.67
2018-10-05T08:27:04.337Z,16.74
2018-10-05T08:29:33.747Z,16.88
2018-10-05T08:32:03.157Z,17.00
2018-10-05T08:34:32.318Z,17.11
2018-10-05T08:37:01.551Z,17.18
2018-10-05T08:39:30.420Z,17.24
2018-10-05T08:41:59.727Z,17.33
2018-10-05T08:44:28.883Z,17.40
2018-10-05T08:46:58.143Z,17.44
2018-10-05T08:49:27.482Z,17.52
2018-10-05T08:51:56.942Z,17.61
2018-10-05T08:54:26.127Z,17.68
2018-10-05T08:56:55.410Z,17.71
2018-10-05T08:59:24.572Z,17.78
2018-10-05T09:01:53.923Z,17.85
2018-10-05T09:04:23.368Z,17.90
2018-10-05T09:06:52.424Z,17.92
2018-10-05T09:09:21.754Z,17.93
2018-10-05T09:11:50.973Z,18.02
2018-10-05T09:14:20.276Z,18.08
2018-10-05T09:16:49.675Z,18.12
2018-10-05T09:19:18.822Z,18.26
2018-10-05T09:21:48.163Z,18.36
2018-10-05T09:24:17.250Z,18.48
2018-10-05T09:26:46.551Z,18.59
2018-10-05T09:29:15.918Z,18.62
2018-10-05T09:31:45.088Z,18.65
2018-10-05T09:34:14.287Z,18.73
2018-10-05T09:36:43.579Z,18.71
2018-10-05T09:39:12.802Z,18.97
2018-10-05T09:41:41.903Z,19.42
2018-10-05T09:44:10.999Z,19.95
2018-10-05T09:46:40.056Z,20.48
2018-10-05T09:49:09.240Z,21.08
2018-10-05T09:51:38.223Z,21.41
2018-10-05T09:54:07.243Z,21.53
2018-10-05T09:56:36.356Z,21.53
2018-10-05T09:59:05.646Z,21.57
2018-10-05T10:01:39.886Z,21.60
2018-10-05T10:04:09.123Z,21.89
2018-10-05T10:06:37.996Z,22.28
2018-10-05T10:09:09.045Z,23.00
2018-10-05T10:11:37.923Z,24.09
2018-10-05T10:14:07.382Z,25.19
2018-10-05T10:16:37.047Z,26.36
2018-10-05T10:19:06.387Z,27.39
2018-10-05T10:21:35.800Z,28.19
2018-10-05T10:24:05.110Z,29.55
2018-10-05T10:26:34.351Z,30.93
2018-10-05T10:29:03.677Z,30.94
2018-10-05T10:31:32.846Z,30.50
2018-10-05T10:34:01.841Z,30.07
2018-10-05T10:36:30.842Z,30.81
2018-10-05T10:39:00.053Z,31.86
2018-10-05T10:41:29.487Z,32.55
2018-10-05T10:43:58.775Z,33.07
2018-10-05T10:46:27.992Z,33.75
2018-10-05T10:48:56.926Z,34.47
2018-10-05T10:51:26.016Z,34.56
2018-10-05T10:53:55.051Z,34.81
2018-10-05T10:56:24.714Z,34.95
2018-10-05T10:58:53.916Z,33.67
2018-10-05T11:01:23.166Z,33.95
2018-10-05T11:03:52.413Z,34.41
2018-10-05T11:06:21.626Z,34.68
2018-10-05T11:08:50.539Z,34.59
2018-10-05T11:11:19.807Z,34.51
2018-10-05T11:13:49.256Z,34.47
2018-10-05T11:16:18.512Z,34.63
2018-10-05T11:18:47.752Z,34.93
2018-10-05T11:21:16.888Z,35.02
2018-10-05T11:23:46.223Z,34.42
2018-10-05T11:26:15.494Z,34.03
2018-10-05T11:28:44.739Z,34.94
2018-10-05T11:31:14.020Z,35.34
2018-10-05T11:33:43.328Z,36.07
2018-10-05T11:36:12.584Z,37.38
2018-10-05T11:38:41.609Z,38.04
2018-10-05T11:41:11.836Z,37.94
2018-10-05T11:43:41.084Z,38.08
2018-10-05T11:46:10.760Z,38.85
2018-10-05T11:48:39.996Z,39.56
2018-10-05T11:51:09.259Z,39.61
2018-10-05T11:53:38.587Z,39.34
2018-10-05T11:56:07.904Z,39.83
2018-10-05T11:58:37.050Z,40.17
2018-10-05T12:01:06.319Z,38.95
2018-10-05T12:03:35.419Z,38.56
2018-10-05T12:06:04.583Z,39.25
2018-10-05T12:08:33.515Z,39.14
2018-10-05T12:11:02.771Z,38.91
2018-10-05T12:13:31.969Z,38.58
2018-10-05T12:16:01.018Z,38.79
2018-10-05T12:18:30.220Z,39.23
2018-10-05T12:20:59.500Z,38.53
2018-10-05T12:23:28.608Z,37.76
2018-10-05T12:25:57.611Z,37.26
2018-10-05T12:28:26.804Z,38.11
2018-10-05T12:30:55.947Z,38.47
2018-10-05T12:33:25.262Z,38.12
2018-10-05T12:35:54.579Z,37.09
2018-10-05T12:38:23.626Z,37.28
2018-10-05T12:40:52.975Z,37.18
2018-10-05T12:43:22.000Z,37.28
2018-10-05T12:45:51.348Z,37.07
2018-10-05T12:48:20.726Z,37.14
2018-10-05T12:50:50.151Z,37.44
2018-10-05T12:53:19.083Z,36.30
2018-10-05T12:55:48.656Z,36.31
2018-10-05T12:58:18.182Z,36.17
2018-10-05T13:00:47.103Z,35.86
2018-10-05T13:03:16.003Z,35.43
2018-10-05T13:05:45.299Z,35.43
2018-10-05T13:08:14.644Z,35.41
2018-10-05T13:10:44.013Z,34.31
2018-10-05T13:13:13.220Z,32.51
2018-10-05T13:15:42.403Z,30.83
2018-10-05T13:18:11.698Z,29.37
2018-10-05T13:20:40.788Z,28.79
2018-10-05T13:23:10.107Z,28.11
2018-10-05T13:25:39.218Z,27.46
2018-10-05T13:28:08.494Z,26.64
2018-10-05T13:30:37.792Z,25.97
2018-10-05T13:33:06.994Z,25.71
2018-10-05T13:35:36.282Z,25.40
2018-10-05T13:38:05.587Z,25.02
2018-10-05T13:40:34.818Z,24.70
2018-10-05T13:43:03.791Z,24.37
2018-10-05T13:45:33.234Z,24.11
2018-10-05T13:48:02.140Z,23.94
2018-10-05T13:50:31.391Z,23.76
2018-10-05T13:53:00.823Z,23.60
2018-10-05T13:55:30.692Z,23.43
2018-10-05T13:57:59.723Z,23.26
2018-10-05T14:00:28.791Z,23.24
2018-10-05T14:02:58.020Z,23.06
2018-10-05T14:05:27.204Z,22.98
2018-10-05T14:07:56.355Z,22.87
2018-10-05T14:10:25.381Z,22.73
2018-10-05T14:12:54.477Z,22.66
2018-10-05T14:15:23.634Z,22.58
2018-10-05T14:17:52.815Z,22.42
2018-10-05T14:20:21.910Z,22.22
2018-10-05T14:22:51.880Z,22.04
2018-10-05T14:25:21.278Z,21.96
2018-10-05T14:27:50.648Z,21.93
2018-10-05T14:30:19.888Z,21.75
2018-10-05T14:32:49.072Z,21.71
2018-10-05T14:35:18.113Z,21.75
2018-10-05T14:37:47.594Z,21.65
2018-10-05T14:40:16.856Z,21.60
2018-10-05T14:42:46.323Z,21.45
2018-10-05T14:45:15.430Z,21.40
2018-10-05T14:47:44.843Z,21.37
2018-10-05T14:50:14.070Z,21.35
2018-10-05T14:52:43.439Z,21.20
2018-10-05T14:55:12.427Z,21.22
2018-10-05T14:57:41.759Z,21.20
2018-10-05T15:00:10.879Z,21.18
2018-10-05T15:02:39.771Z,21.14
2018-10-05T15:05:09.103Z,21.04
2018-10-05T15:07:38.464Z,20.96
2018-10-05T15:10:07.665Z,20.92
2018-10-05T15:12:36.652Z,20.84
2018-10-05T15:15:06.068Z,20.77
2018-10-05T15:17:35.312Z,20.72
2018-10-05T15:20:04.755Z,20.64
2018-10-05T15:22:33.902Z,20.63
2018-10-05T15:25:03.207Z,20.45
2018-10-05T15:27:32.405Z,20.41
2018-10-05T15:30:01.692Z,20.24
2018-10-05T15:32:30.571Z,20.21
2018-10-05T15:34:59.890Z,20.07
2018-10-05T15:37:28.853Z,19.95
2018-10-05T15:39:58.032Z,19.81
2018-10-05T15:42:27.484Z,19.69
2018-10-05T15:44:56.799Z,19.57
2018-10-05T15:47:25.707Z,19.43
2018-10-05T15:49:55.086Z,19.42
2018-10-05T15:52:24.425Z,19.27
2018-10-05T15:54:53.402Z,19.23
2018-10-05T15:57:22.547Z,19.12
2018-10-05T15:59:51.768Z,18.99
2018-10-05T16:02:20.947Z,18.87
2018-10-05T16:04:49.993Z,18.67
2018-10-05T16:07:19.296Z,18.57
2018-10-05T16:09:48.539Z,18.51
2018-10-05T16:12:17.896Z,18.36
2018-10-05T16:14:47.134Z,18.22
2018-10-05T16:17:16.511Z,18.07
2018-10-05T16:19:45.864Z,17.86
2018-10-05T16:22:15.239Z,17.71
2018-10-05T16:24:45.167Z,17.58
2018-10-05T16:27:14.628Z,17.45
2018-10-05T16:29:44.060Z,17.35
2018-10-05T16:32:13.419Z,17.22
2018-10-05T16:34:42.557Z,17.08
2018-10-05T16:37:11.669Z,16.94
2018-10-05T16:39:41.803Z,16.82
2018-10-05T16:42:11.186Z,16.78
2018-10-05T16:44:40.472Z,16.70
2018-10-05T16:47:09.814Z,16.65
2018-10-05T16:49:38.847Z,16.61
2018-10-05T16:52:08.028Z,16.63
2018-10-05T16:54:37.403Z,16.63
2018-10-05T16:57:06.773Z,16.54
2018-10-05T16:59:36.042Z,16.56
2018-10-05T17:02:05.340Z,16.49
2018-10-05T17:04:34.601Z,16.46
2018-10-05T17:07:03.525Z,16.41
2018-10-05T17:09:33.519Z,16.37
2018-10-05T17:12:02.498Z,16.31
2018-10-05T17:14:31.732Z,16.22
2018-10-05T17:17:01.156Z,16.11
2018-10-05T17:19:30.446Z,16.00
2018-10-05T17:22:00.148Z,15.90
2018-10-05T17:24:29.396Z,15.83
2018-10-05T17:26:58.916Z,15.78
2018-10-05T17:29:28.237Z,15.75
2018-10-05T17:31:57.644Z,15.69
2018-10-05T17:34:26.971Z,15.64
2018-10-05T17:36:56.283Z,15.56
2018-10-05T17:39:25.775Z,15.50
2018-10-05T17:41:55.134Z,15.43
2018-10-05T17:44:24.638Z,15.50
2018-10-05T17:46:54.160Z,15.49
2018-10-05T17:49:25.990Z,15.43
2018-10-05T17:51:56.071Z,15.36
2018-10-05T17:54:25.287Z,15.28
2018-10-05T17:56:54.323Z,15.23
2018-10-05T17:59:23.802Z,15.15
2018-10-05T18:01:53.161Z,15.14
2018-10-05T18:04:23.374Z,15.07
2018-10-05T18:06:52.779Z,14.95
2018-10-05T18:09:21.842Z,14.87
2018-10-05T18:11:51.058Z,14.82
2018-10-05T18:14:20.312Z,14.77
2018-10-05T18:16:49.663Z,14.74
2018-10-05T18:19:19.138Z,14.69
2018-10-05T18:21:48.577Z,14.60
2018-10-05T18:24:17.886Z,14.51
2018-10-05T18:26:47.716Z,14.41
2018-10-05T18:29:17.187Z,14.40
2018-10-05T18:31:46.708Z,14.34
2018-10-05T18:34:17.290Z,14.27
2018-10-05T18:36:46.310Z,14.24
2018-10-05T18:39:16.296Z,14.21
2018-10-05T18:41:45.808Z,14.19
2018-10-05T18:44:15.320Z,14.15
2018-10-05T18:46:44.470Z,14.17
2018-10-05T18:49:13.784Z,14.11
2018-10-05T18:51:43.042Z,14.10
2018-10-05T18:54:12.411Z,14.08
2018-10-05T18:56:52.358Z,14.05
2018-10-05T18:59:21.885Z,14.07
2018-10-05T19:01:51.190Z,14.10
2018-10-05T19:04:21.248Z,14.14
2018-10-05T19:06:50.253Z,14.08
2018-10-05T19:09:19.564Z,14.04
2018-10-05T19:11:48.674Z,13.97
2018-10-05T19:14:18.045Z,13.94
2018-10-05T19:16:47.152Z,13.91
2018-10-05T19:19:16.236Z,13.88
2018-10-05T19:21:45.531Z,13.91
2018-10-05T19:24:14.815Z,13.92
2018-10-05T19:26:44.133Z,13.86
2018-10-05T19:29:13.359Z,13.81
2018-10-05T19:31:42.500Z,13.80
2018-10-05T19:34:11.808Z,13.79
2018-10-05T19:36:41.152Z,13.83
2018-10-05T19:39:11.399Z,13.78
2018-10-05T19:41:41.298Z,13.70
2018-10-05T19:44:11.160Z,13.79
2018-10-05T19:46:40.379Z,13.89
2018-10-05T19:49:09.300Z,13.73
2018-10-05T19:51:38.477Z,13.83
2018-10-05T19:54:07.492Z,13.72
2018-10-05T19:56:36.741Z,13.76
2018-10-05T19:59:06.082Z,13.95
2018-10-05T20:01:35.303Z,13.89
2018-10-05T20:04:04.580Z,13.92
2018-10-05T20:06:33.888Z,13.87
2018-10-05T20:09:03.307Z,13.88
2018-10-05T20:11:32.490Z,13.90
2018-10-05T20:14:01.575Z,13.83
2018-10-05T20:16:30.858Z,13.76
2018-10-05T20:18:59.878Z,13.69
2018-10-05T20:21:28.868Z,13.64
2018-10-05T20:23:58.208Z,13.54
2018-10-05T20:26:27.423Z,13.47
2018-10-05T20:28:56.355Z,13.37
2018-10-05T20:31:25.346Z,13.44
2018-10-05T20:33:54.646Z,13.44
2018-10-05T20:36:23.956Z,13.41
2018-10-05T20:38:53.197Z,13.39
2018-10-05T20:41:22.904Z,13.37
2018-10-05T20:43:52.124Z,13.34
2018-10-05T20:46:21.344Z,13.23
2018-10-05T20:48:50.295Z,13.13
2018-10-05T20:51:19.487Z,13.06
2018-10-05T20:53:48.888Z,13.00
2018-10-05T20:56:18.335Z,13.01
2018-10-05T20:58:47.779Z,12.98
2018-10-05T21:01:17.091Z,12.90
2018-10-05T21:03:46.352Z,12.88
2018-10-05T21:06:15.627Z,13.07
2018-10-05T21:08:45.107Z,13.06
2018-10-05T21:11:14.047Z,13.05
2018-10-05T21:13:43.236Z,13.05
2018-10-05T21:16:12.559Z,13.00
2018-10-05T21:18:41.650Z,12.96
2018-10-05T21:21:10.928Z,12.91
2018-10-05T21:23:40.123Z,12.69
2018-10-05T21:26:09.520Z,12.62
2018-10-05T21:28:38.721Z,12.63
2018-10-05T21:31:07.734Z,12.54
2018-10-05T21:33:36.698Z,12.44
2018-10-05T21:36:05.995Z,12.38
2018-10-05T21:38:35.217Z,12.34
2018-10-05T21:41:04.391Z,12.41
2018-10-05T21:43:33.549Z,12.47
2018-10-05T21:46:02.475Z,12.45
2018-10-05T21:48:31.778Z,12.39
2018-10-05T21:51:00.993Z,12.36
2018-10-05T21:53:30.196Z,12.44
2018-10-05T21:55:59.060Z,12.49
2018-10-05T21:58:28.313Z,12.50
2018-10-05T22:00:57.669Z,12.53
2018-10-05T22:03:26.900Z,12.44
2018-10-05T22:05:56.051Z,12.45
2018-10-05T22:08:25.302Z,12.47
2018-10-05T22:10:54.653Z,12.47
2018-10-05T22:13:23.991Z,12.37
2018-10-05T22:15:52.890Z,12.24
2018-10-05T22:18:21.991Z,12.34
2018-10-05T22:20:51.231Z,12.45
2018-10-05T22:23:20.257Z,12.51
2018-10-05T22:25:49.629Z,12.55
2018-10-05T22:28:18.876Z,12.56
2018-10-05T22:30:48.227Z,12.47
2018-10-05T22:33:17.363Z,12.40
2018-10-05T22:35:46.755Z,12.30
2018-10-05T22:38:16.034Z,12.20
2018-10-05T22:40:45.328Z,12.18
2018-10-05T22:43:14.444Z,12.10
2018-10-05T22:45:43.555Z,12.05
2018-10-05T22:48:12.403Z,11.96
2018-10-05T22:50:41.702Z,11.89
2018-10-05T22:53:11.044Z,11.78
2018-10-05T22:55:39.907Z,11.90
2018-10-05T22:58:08.828Z,11.89
2018-10-05T23:00:38.035Z,11.98
2018-10-05T23:03:07.433Z,11.85
2018-10-05T23:05:36.666Z,11.93
2018-10-05T23:08:05.832Z,11.88
2018-10-05T23:10:35.076Z,11.86
2018-10-05T23:13:04.428Z,11.85
2018-10-05T23:15:33.767Z,11.63
2018-10-05T23:18:02.703Z,11.66
2018-10-05T23:20:31.920Z,11.75
2018-10-05T23:23:01.306Z,11.80
2018-10-05T23:25:30.763Z,11.73
2018-10-05T23:27:59.973Z,11.70
2018-10-05T23:30:29.251Z,11.71
2018-10-05T23:32:58.455Z,11.78
2018-10-05T23:35:27.617Z,11.78
2018-10-05T23:37:56.695Z,11.73
2018-10-05T23:40:26.097Z,11.70
2018-10-05T23:42:55.162Z,11.71
2018-10-05T23:45:24.139Z,11.73
2018-10-05T23:47:53.409Z,11.68
2018-10-05T23:50:22.270Z,11.69
2018-10-05T23:52:52.143Z,11.65
2018-10-05T23:55:21.807Z,11.70
2018-10-05T23:57:50.739Z,11.61
